Unity, Wisconsin
Current Conditions -  °F | °C
As of 2:54 AM on Thursday 27 Nov 2014 (Local Time) from KMFI Reporting Station
Overcast Overcast  
Wind Chill:   Ceiling: 5500
Heat Index: 16°   Visibility: 10mi
Dew Point: 11°   Wind: 12mph
Humidity: 81%   Direction: 330°NNW
Pressure: 30.27"   Gusts: NA
Location:  44.85°N, 90.31°W
Report Text: KMFI 270854Z AUTO 33010KT 10SM FEW014 OVC055 M09/M12 A3027 RMK AO2 SNE28 SLP273 P0000 60000 T10891117 53014
Loading
Personal Weather Stations






























Interactive Weather Map New forecast layout! Learn more

10-Day Weather Forecast

Advertisements
Track Severe Weather on mobile